createdAt,value
2023-04-27T00:00:00.980Z,12.90
2023-04-27T00:02:32.011Z,12.70
2023-04-27T00:05:04.105Z,12.70
2023-04-27T00:07:35.086Z,12.80
2023-04-27T00:10:07.164Z,12.70
2023-04-27T00:12:37.819Z,12.60
2023-04-27T00:15:11.123Z,12.30
2023-04-27T00:17:43.562Z,12.00
2023-04-27T00:20:14.970Z,11.90
2023-04-27T00:22:45.794Z,11.70
2023-04-27T00:25:16.503Z,11.60
2023-04-27T00:27:47.129Z,11.60
2023-04-27T00:30:18.059Z,11.70
2023-04-27T00:32:48.905Z,11.70
2023-04-27T00:35:19.876Z,11.60
2023-04-27T00:37:50.501Z,11.50
2023-04-27T00:40:22.905Z,11.50
2023-04-27T00:42:53.759Z,11.40
2023-04-27T00:45:24.664Z,11.50
2023-04-27T00:47:55.904Z,11.40
2023-04-27T00:50:29.786Z,11.20
2023-04-27T00:53:00.816Z,11.20
2023-04-27T00:55:31.572Z,11.00
2023-04-27T00:58:02.241Z,11.10
2023-04-27T01:00:33.495Z,11.10
2023-04-27T01:03:05.475Z,11.20
2023-04-27T01:05:37.651Z,11.30
2023-04-27T01:08:08.385Z,11.30
2023-04-27T01:10:39.152Z,11.70
2023-04-27T01:13:09.864Z,11.50
2023-04-27T01:15:40.566Z,11.20
2023-04-27T01:18:11.302Z,11.00
2023-04-27T01:20:42.591Z,11.00
2023-04-27T01:23:17.282Z,11.00
2023-04-27T01:25:48.394Z,10.90
2023-04-27T01:28:19.106Z,10.80
2023-04-27T01:30:49.840Z,10.80
2023-04-27T01:33:20.507Z,10.80
2023-04-27T01:35:51.639Z,10.80
2023-04-27T01:38:23.884Z,10.70
2023-04-27T01:40:55.684Z,10.80
2023-04-27T01:43:26.532Z,10.90
2023-04-27T01:45:57.409Z,11.00
2023-04-27T01:48:28.201Z,11.10
2023-04-27T01:50:58.952Z,11.20
2023-04-27T01:53:29.621Z,11.20
2023-04-27T01:56:00.562Z,11.30
2023-04-27T01:58:31.187Z,11.30
2023-04-27T02:01:01.887Z,11.10
2023-04-27T02:03:32.925Z,11.40
2023-04-27T02:06:03.739Z,11.40
2023-04-27T02:08:35.477Z,11.30
2023-04-27T02:11:06.389Z,11.30
2023-04-27T02:13:37.025Z,11.60
2023-04-27T02:16:09.109Z,11.20
2023-04-27T02:18:40.655Z,10.90
2023-04-27T02:21:14.303Z,10.80
2023-04-27T02:23:45.043Z,10.50
2023-04-27T02:26:34.372Z,10.40
2023-04-27T02:29:05.076Z,10.40
2023-04-27T02:31:36.319Z,10.30
2023-04-27T02:34:07.124Z,10.20
2023-04-27T02:36:56.540Z,10.20
2023-04-27T02:39:27.121Z,10.10
2023-04-27T02:41:57.901Z,10.10
2023-04-27T02:44:28.667Z,10.00
2023-04-27T02:46:59.367Z,9.80
2023-04-27T02:49:30.194Z,9.80
2023-04-27T02:52:00.994Z,9.70
2023-04-27T02:54:31.824Z,9.90
2023-04-27T02:57:02.774Z,9.70
2023-04-27T02:59:33.880Z,9.70
2023-04-27T03:02:04.566Z,9.90
2023-04-27T03:04:36.206Z,10.00
2023-04-27T03:07:06.922Z,10.10
2023-04-27T03:09:38.039Z,10.20
2023-04-27T03:12:08.881Z,10.30
2023-04-27T03:14:39.504Z,10.40
2023-04-27T03:17:10.668Z,10.20
2023-04-27T03:19:41.353Z,10.20
2023-04-27T03:22:12.410Z,10.50
2023-04-27T03:24:43.272Z,10.10
2023-04-27T03:27:14.215Z,10.10
2023-04-27T03:29:44.951Z,10.20
2023-04-27T03:32:15.830Z,10.40
2023-04-27T03:34:46.527Z,10.20
2023-04-27T03:37:17.446Z,10.00
2023-04-27T03:39:48.254Z,9.90
2023-04-27T03:42:18.908Z,9.80
2023-04-27T03:44:49.532Z,9.90
2023-04-27T03:47:20.223Z,9.90
2023-04-27T03:49:50.918Z,10.10
2023-04-27T03:52:21.696Z,10.00
2023-04-27T03:54:52.415Z,9.90
2023-04-27T03:57:23.053Z,9.90
2023-04-27T03:59:53.827Z,9.70
2023-04-27T04:02:24.751Z,9.80
2023-04-27T04:04:55.836Z,10.00
2023-04-27T04:07:26.926Z,9.90
2023-04-27T04:09:57.597Z,9.50
2023-04-27T04:12:28.277Z,9.50
2023-04-27T04:14:59.629Z,9.50
2023-04-27T04:17:30.488Z,9.40
2023-04-27T04:20:02.808Z,9.30
2023-04-27T04:22:33.774Z,9.30
2023-04-27T04:25:04.764Z,9.50
2023-04-27T04:27:36.348Z,9.70
2023-04-27T04:30:09.550Z,9.40
2023-04-27T04:32:41.882Z,9.20
2023-04-27T04:35:13.195Z,9.40
2023-04-27T04:37:44.026Z,9.30
2023-04-27T04:40:16.314Z,9.30
2023-04-27T04:42:47.346Z,9.20
2023-04-27T04:45:18.212Z,9.20
2023-04-27T04:47:50.464Z,9.50
2023-04-27T04:50:21.383Z,9.60
2023-04-27T04:55:29.949Z,9.60
2023-04-27T04:58:00.967Z,9.50
2023-04-27T05:00:32.085Z,9.60
2023-04-27T05:03:02.884Z,9.70
2023-04-27T05:05:33.906Z,9.50
2023-04-27T05:08:04.643Z,9.50
2023-04-27T05:10:35.271Z,9.50
2023-04-27T05:13:07.166Z,9.50
2023-04-27T05:15:39.950Z,9.60
2023-04-27T05:18:10.734Z,9.60
2023-04-27T05:20:41.624Z,9.60
2023-04-27T05:23:12.423Z,9.80
2023-04-27T05:25:43.132Z,9.90
2023-04-27T05:28:14.159Z,10.20
2023-04-27T05:30:45.108Z,10.30
2023-04-27T05:33:15.909Z,10.30
2023-04-27T05:35:46.627Z,10.40
2023-04-27T05:38:17.824Z,10.70
2023-04-27T05:40:48.660Z,10.70
2023-04-27T05:43:19.253Z,10.60
2023-04-27T05:45:49.945Z,10.40
2023-04-27T05:48:21.301Z,10.50
2023-04-27T05:50:53.495Z,10.70
2023-04-27T05:53:24.235Z,10.70
2023-04-27T05:55:54.917Z,10.80
2023-04-27T05:58:25.578Z,11.00
2023-04-27T06:00:57.452Z,11.30
2023-04-27T06:03:28.377Z,11.50
2023-04-27T06:06:00.677Z,11.80
2023-04-27T06:08:31.821Z,11.70
2023-04-27T06:11:02.825Z,11.70
2023-04-27T06:13:34.700Z,11.70
2023-04-27T06:16:05.995Z,11.60
2023-04-27T06:18:36.716Z,11.90
2023-04-27T06:21:07.834Z,12.10
2023-04-27T06:23:38.457Z,12.30
2023-04-27T06:26:09.167Z,12.40
2023-04-27T06:28:39.985Z,12.50
2023-04-27T06:31:10.733Z,12.60
2023-04-27T06:33:41.486Z,12.60
2023-04-27T06:36:12.374Z,12.70
2023-04-27T06:38:43.260Z,12.70
2023-04-27T06:41:14.368Z,12.80
2023-04-27T06:43:44.934Z,13.10
2023-04-27T06:46:15.843Z,13.30
2023-04-27T06:48:47.433Z,13.30
2023-04-27T06:51:18.163Z,13.50
2023-04-27T06:53:48.864Z,13.60
2023-04-27T06:56:19.675Z,13.70
2023-04-27T06:58:50.480Z,13.60
2023-04-27T07:01:21.280Z,13.20
2023-04-27T07:03:52.080Z,13.20
2023-04-27T07:06:23.399Z,13.30
2023-04-27T07:08:54.586Z,13.40
2023-04-27T07:11:25.269Z,13.60
2023-04-27T07:13:56.101Z,13.80
2023-04-27T07:16:27.206Z,13.90
2023-04-27T07:18:58.211Z,14.00
2023-04-27T07:21:29.467Z,14.30
2023-04-27T07:24:00.116Z,14.40
2023-04-27T07:26:32.120Z,14.30
2023-04-27T07:29:11.216Z,14.40
2023-04-27T07:31:35.763Z,14.50
2023-04-27T07:34:06.429Z,14.60
2023-04-27T07:36:37.111Z,14.90
2023-04-27T07:39:08.656Z,15.00
2023-04-27T07:41:39.458Z,14.90
2023-04-27T07:44:10.484Z,14.70
2023-04-27T07:46:41.089Z,14.60
2023-04-27T07:49:13.481Z,14.80
2023-04-27T07:51:44.642Z,15.00
2023-04-27T07:54:15.305Z,15.10
2023-04-27T07:56:46.500Z,15.10
2023-04-27T07:59:17.240Z,15.50
2023-04-27T08:01:48.292Z,15.50
2023-04-27T08:04:19.183Z,15.60
2023-04-27T08:06:50.622Z,15.40
2023-04-27T08:09:21.885Z,15.90
2023-04-27T08:11:52.712Z,15.90
2023-04-27T08:14:23.461Z,16.00
2023-04-27T08:16:54.110Z,16.20
2023-04-27T08:19:24.863Z,16.20
2023-04-27T08:21:56.156Z,16.10
2023-04-27T08:24:26.786Z,16.20
2023-04-27T08:26:57.527Z,16.30
2023-04-27T08:29:29.105Z,16.30
2023-04-27T08:32:03.012Z,16.60
2023-04-27T08:34:33.625Z,16.50
2023-04-27T08:37:04.742Z,16.90
2023-04-27T08:39:35.455Z,17.10
2023-04-27T08:42:15.510Z,17.20
2023-04-27T08:44:46.755Z,17.40
2023-04-27T08:47:18.927Z,17.60
2023-04-27T08:49:49.891Z,17.90
2023-04-27T08:52:20.692Z,17.90
2023-04-27T08:54:51.263Z,17.80
2023-04-27T08:57:21.890Z,18.00
2023-04-27T09:00:02.416Z,18.10
2023-04-27T09:02:34.370Z,18.10
2023-04-27T09:05:06.854Z,18.30
2023-04-27T09:07:38.002Z,18.40
2023-04-27T09:10:10.849Z,18.40
2023-04-27T09:12:41.504Z,18.70
2023-04-27T09:15:13.352Z,19.30
2023-04-27T09:17:45.955Z,19.10
2023-04-27T09:20:18.349Z,19.00
2023-04-27T09:22:51.416Z,19.20
2023-04-27T09:25:29.390Z,19.30
2023-04-27T09:28:01.599Z,19.40
2023-04-27T09:30:32.411Z,19.10
2023-04-27T09:33:03.996Z,19.10
2023-04-27T09:35:35.424Z,19.90
2023-04-27T09:38:06.333Z,20.50
2023-04-27T09:40:38.815Z,20.10
2023-04-27T09:43:10.991Z,19.80
2023-04-27T09:45:42.443Z,20.10
2023-04-27T09:48:14.498Z,19.80
2023-04-27T09:50:47.491Z,19.90
2023-04-27T09:53:20.708Z,19.80
2023-04-27T09:55:54.653Z,19.70
2023-04-27T09:58:43.946Z,20.10
2023-04-27T10:01:17.632Z,20.50
2023-04-27T10:03:53.200Z,20.60
2023-04-27T10:06:57.719Z,20.40
2023-04-27T10:09:31.273Z,20.30
2023-04-27T10:12:15.546Z,20.20
2023-04-27T10:14:54.475Z,20.20
2023-04-27T10:17:31.816Z,20.50
2023-04-27T10:20:04.161Z,20.80
2023-04-27T10:22:43.014Z,20.90
2023-04-27T10:25:20.225Z,20.50
2023-04-27T10:27:56.231Z,21.10
2023-04-27T10:30:30.374Z,21.10
2023-04-27T10:33:03.584Z,20.90
2023-04-27T10:35:38.840Z,21.00
2023-04-27T10:38:11.009Z,20.80
2023-04-27T10:40:42.191Z,20.90
2023-04-27T10:43:14.520Z,20.80
2023-04-27T10:45:46.293Z,20.60
2023-04-27T10:48:17.019Z,20.60
2023-04-27T10:50:47.784Z,20.90
2023-04-27T10:53:19.578Z,20.90
2023-04-27T10:55:51.780Z,21.20
2023-04-27T11:01:06.883Z,21.20
2023-04-27T11:03:37.721Z,21.50
2023-04-27T11:06:09.692Z,21.70
2023-04-27T11:08:47.017Z,21.70
2023-04-27T11:11:18.961Z,21.30
2023-04-27T11:13:53.145Z,21.30
2023-04-27T11:16:24.444Z,22.00
2023-04-27T11:18:55.872Z,22.60
2023-04-27T11:21:28.656Z,22.30
2023-04-27T11:24:01.788Z,22.00
2023-04-27T11:26:33.269Z,21.80
2023-04-27T11:29:05.793Z,21.70
2023-04-27T11:31:46.088Z,21.60
2023-04-27T11:34:22.801Z,22.00
2023-04-27T11:37:17.294Z,22.20
2023-04-27T11:39:38.927Z,22.10
2023-04-27T11:42:20.867Z,22.00
2023-04-27T11:44:59.698Z,22.40
2023-04-27T11:47:33.098Z,22.40
2023-04-27T11:50:06.458Z,22.10
2023-04-27T11:55:16.821Z,22.20
2023-04-27T12:00:28.911Z,21.80
2023-04-27T12:03:01.107Z,21.90
2023-04-27T12:05:32.140Z,21.80
2023-04-27T12:08:03.073Z,22.00
2023-04-27T12:10:33.749Z,22.10
2023-04-27T12:13:05.067Z,22.50
2023-04-27T12:15:36.051Z,22.50
2023-04-27T12:18:07.018Z,23.00
2023-04-27T12:20:38.495Z,23.00
2023-04-27T12:23:10.565Z,23.20
2023-04-27T12:25:41.789Z,23.50
2023-04-27T12:28:14.598Z,23.80
2023-04-27T12:30:45.290Z,23.40
2023-04-27T12:33:16.888Z,23.60
2023-04-27T12:35:47.778Z,23.80
2023-04-27T12:38:18.517Z,23.90
2023-04-27T12:40:49.467Z,24.10
2023-04-27T12:45:49.834Z,24.90
2023-04-27T12:48:22.724Z,24.90
2023-04-27T12:50:53.533Z,25.30
2023-04-27T12:53:24.163Z,25.60
2023-04-27T12:55:54.841Z,25.20
2023-04-27T12:58:25.506Z,25.10
2023-04-27T13:00:58.792Z,25.00
2023-04-27T13:03:29.665Z,25.10
2023-04-27T13:06:00.622Z,25.60
2023-04-27T13:08:31.227Z,25.20
2023-04-27T13:11:02.027Z,25.40
2023-04-27T13:13:32.733Z,25.30
2023-04-27T13:16:04.604Z,25.10
2023-04-27T13:18:35.715Z,23.90
2023-04-27T13:21:06.940Z,23.90
2023-04-27T13:23:37.525Z,24.20
2023-04-27T13:26:08.305Z,24.50
2023-04-27T13:28:38.924Z,24.30
2023-04-27T13:31:09.734Z,23.80
2023-04-27T13:33:43.277Z,24.10
2023-04-27T13:36:14.890Z,24.50
2023-04-27T13:38:46.015Z,25.40
2023-04-27T13:41:16.733Z,24.70
2023-04-27T13:43:47.496Z,23.80
2023-04-27T13:46:18.178Z,24.70
2023-04-27T13:48:48.851Z,24.50
2023-04-27T13:51:19.712Z,24.80
2023-04-27T13:53:50.360Z,24.80
2023-04-27T13:56:21.054Z,24.70
2023-04-27T13:58:51.943Z,25.40
2023-04-27T14:01:22.829Z,25.80
2023-04-27T14:03:54.796Z,25.50
2023-04-27T14:06:27.190Z,25.90
2023-04-27T14:08:57.916Z,26.00
2023-04-27T14:11:28.724Z,25.50
2023-04-27T14:13:59.429Z,25.00
2023-04-27T14:16:30.238Z,25.00
2023-04-27T14:19:01.204Z,24.80
2023-04-27T14:21:32.465Z,24.50
2023-04-27T14:24:03.197Z,24.40
2023-04-27T14:26:34.178Z,24.60
2023-04-27T14:29:04.802Z,24.70
2023-04-27T14:31:35.524Z,24.80
2023-04-27T14:34:06.200Z,24.60
2023-04-27T14:36:36.905Z,24.60
2023-04-27T14:39:08.732Z,24.70
2023-04-27T14:41:39.653Z,24.20
2023-04-27T14:44:10.934Z,24.00
2023-04-27T14:46:42.968Z,23.80
2023-04-27T14:49:14.333Z,23.50
2023-04-27T14:51:45.494Z,23.40
2023-04-27T14:54:18.101Z,23.20
2023-04-27T14:56:49.252Z,23.00
2023-04-27T14:59:20.064Z,22.80
2023-04-27T15:01:51.851Z,22.60
2023-04-27T15:04:23.347Z,22.40
2023-04-27T15:06:54.793Z,22.50
2023-04-27T15:09:25.599Z,22.40
2023-04-27T15:14:34.894Z,22.10
2023-04-27T15:17:05.536Z,22.10
2023-04-27T15:19:36.308Z,22.30
2023-04-27T15:22:07.391Z,22.30
2023-04-27T15:24:38.095Z,22.30
2023-04-27T15:27:15.793Z,22.10
2023-04-27T15:29:46.483Z,22.10
2023-04-27T15:32:17.774Z,22.00
2023-04-27T15:34:48.530Z,22.30
2023-04-27T15:37:19.365Z,22.10
2023-04-27T15:39:50.039Z,21.90
2023-04-27T15:42:20.836Z,22.00
2023-04-27T15:44:51.949Z,22.10
2023-04-27T15:47:22.627Z,22.00
2023-04-27T15:49:57.326Z,22.00
2023-04-27T15:52:25.995Z,21.80
2023-04-27T15:54:57.298Z,21.80
2023-04-27T15:57:27.984Z,21.90
2023-04-27T15:59:58.669Z,22.00
2023-04-27T16:02:29.481Z,22.00
2023-04-27T16:05:00.405Z,21.90
2023-04-27T16:07:32.183Z,21.90
2023-04-27T16:12:40.391Z,22.00
2023-04-27T16:15:13.041Z,21.90
2023-04-27T16:17:43.701Z,21.80
2023-04-27T16:20:14.662Z,21.80
2023-04-27T16:22:45.940Z,21.70
2023-04-27T16:25:16.924Z,21.60
2023-04-27T16:27:48.905Z,21.50
2023-04-27T16:30:19.686Z,21.50
2023-04-27T16:32:50.522Z,21.30
2023-04-27T16:35:21.491Z,21.10
2023-04-27T16:37:53.949Z,20.90
2023-04-27T16:40:24.686Z,20.80
2023-04-27T16:42:56.110Z,20.80
2023-04-27T16:45:27.451Z,20.70
2023-04-27T16:47:59.885Z,20.60
2023-04-27T16:50:32.137Z,20.60
2023-04-27T16:53:09.443Z,20.40
2023-04-27T16:55:40.887Z,20.30
2023-04-27T16:58:12.380Z,20.30
2023-04-27T17:00:43.523Z,20.20
2023-04-27T17:03:15.259Z,20.10
2023-04-27T17:05:46.171Z,20.00
2023-04-27T17:08:17.355Z,19.90
2023-04-27T17:10:54.986Z,19.90
2023-04-27T17:13:26.121Z,19.80
2023-04-27T17:15:57.661Z,19.80
2023-04-27T17:18:28.823Z,19.90
2023-04-27T17:21:00.181Z,19.90
2023-04-27T17:23:31.616Z,19.80
2023-04-27T17:26:03.339Z,20.00
2023-04-27T17:28:34.639Z,19.90
2023-04-27T17:31:05.908Z,19.90
2023-04-27T17:33:38.472Z,19.70
2023-04-27T17:36:11.071Z,19.50
2023-04-27T17:38:42.271Z,19.40
2023-04-27T17:41:13.474Z,19.40
2023-04-27T17:43:44.225Z,19.30
2023-04-27T17:46:14.987Z,19.10
2023-04-27T17:48:46.168Z,19.00
2023-04-27T17:51:16.816Z,18.90
2023-04-27T17:53:47.676Z,18.90
2023-04-27T17:56:18.336Z,18.80
2023-04-27T17:58:49.154Z,18.60
2023-04-27T18:01:20.039Z,18.50
2023-04-27T18:03:51.014Z,18.50
2023-04-27T18:06:21.901Z,18.30
2023-04-27T18:08:52.640Z,18.30
2023-04-27T18:11:23.433Z,18.10
2023-04-27T18:13:55.136Z,18.00
2023-04-27T18:16:26.501Z,18.10
2023-04-27T18:18:57.263Z,18.20
2023-04-27T18:21:28.096Z,18.00
2023-04-27T18:23:58.832Z,17.90
2023-04-27T18:26:30.818Z,17.90
2023-04-27T18:29:08.828Z,17.70
2023-04-27T18:31:40.438Z,17.50
2023-04-27T18:34:11.987Z,17.50
2023-04-27T18:36:46.384Z,17.50
2023-04-27T18:39:17.264Z,17.40
2023-04-27T18:41:48.504Z,17.50
2023-04-27T18:44:19.369Z,17.30
2023-04-27T18:46:50.144Z,17.20
2023-04-27T18:49:22.000Z,17.20
2023-04-27T18:51:52.914Z,17.20
2023-04-27T18:54:23.831Z,17.30
2023-04-27T18:56:54.618Z,17.20
2023-04-27T18:59:25.348Z,17.00
2023-04-27T19:01:56.183Z,16.90
2023-04-27T19:04:27.295Z,17.00
2023-04-27T19:06:58.165Z,16.90
2023-04-27T19:09:29.247Z,16.90
2023-04-27T19:12:03.232Z,16.90
2023-04-27T19:14:32.498Z,16.90
2023-04-27T19:17:03.314Z,16.80
2023-04-27T19:19:34.189Z,16.70
2023-04-27T19:22:05.695Z,16.60
2023-04-27T19:24:36.707Z,16.40
2023-04-27T19:27:08.323Z,16.30
2023-04-27T19:32:28.784Z,16.20
2023-04-27T19:35:00.680Z,16.00
2023-04-27T19:37:31.724Z,15.90
2023-04-27T19:40:03.031Z,15.90
2023-04-27T19:42:34.392Z,15.70
2023-04-27T19:45:06.146Z,15.50
2023-04-27T19:47:37.019Z,15.50
2023-04-27T19:50:09.822Z,15.50
2023-04-27T19:52:40.728Z,15.50
2023-04-27T19:55:12.305Z,15.50
2023-04-27T19:57:44.225Z,15.40
2023-04-27T20:00:16.620Z,15.50
2023-04-27T20:02:47.513Z,15.40
2023-04-27T20:05:18.707Z,15.40
2023-04-27T20:07:51.077Z,15.20
2023-04-27T20:13:01.218Z,15.10
2023-04-27T20:15:32.542Z,15.10
2023-04-27T20:18:03.368Z,15.20
2023-04-27T20:20:34.160Z,15.20
2023-04-27T20:23:04.976Z,15.20
2023-04-27T20:25:36.461Z,15.20
2023-04-27T20:28:07.452Z,15.30
2023-04-27T20:30:38.172Z,15.30
2023-04-27T20:33:08.962Z,15.20
2023-04-27T20:35:40.025Z,15.10
2023-04-27T20:38:10.993Z,14.90
2023-04-27T20:40:42.280Z,14.80
2023-04-27T20:43:13.792Z,14.80
2023-04-27T20:45:44.743Z,15.10
2023-04-27T20:48:15.665Z,15.20
2023-04-27T20:50:46.861Z,15.30
2023-04-27T20:53:17.855Z,15.30
2023-04-27T20:55:48.698Z,15.30
2023-04-27T20:58:19.831Z,15.30
2023-04-27T21:00:50.765Z,15.20
2023-04-27T21:03:21.840Z,15.10
2023-04-27T21:05:53.082Z,15.00
2023-04-27T21:08:23.804Z,15.00
2023-04-27T21:10:55.009Z,15.10
2023-04-27T21:13:26.093Z,15.20
2023-04-27T21:15:57.822Z,15.30
2023-04-27T21:18:30.805Z,15.30
2023-04-27T21:21:02.940Z,15.30
2023-04-27T21:23:36.723Z,15.40
2023-04-27T21:26:09.187Z,15.50
2023-04-27T21:28:40.555Z,15.50
2023-04-27T21:31:11.515Z,15.50
2023-04-27T21:33:42.844Z,15.70
2023-04-27T21:36:13.774Z,15.50
2023-04-27T21:38:44.853Z,15.00
2023-04-27T21:41:16.936Z,14.70
2023-04-27T21:43:47.742Z,14.60
2023-04-27T21:46:18.572Z,14.70
2023-04-27T21:48:49.680Z,14.80
2023-04-27T21:51:20.614Z,14.80
2023-04-27T21:53:51.648Z,14.80
2023-04-27T21:56:22.560Z,14.90
2023-04-27T21:58:53.417Z,14.80
2023-04-27T22:01:26.072Z,14.90
2023-04-27T22:03:58.602Z,15.10
2023-04-27T22:06:31.177Z,15.30
2023-04-27T22:09:02.089Z,15.40
2023-04-27T22:11:33.036Z,15.40
2023-04-27T22:14:03.839Z,15.30
2023-04-27T22:16:34.960Z,15.30
2023-04-27T22:19:06.058Z,15.30
2023-04-27T22:21:37.676Z,15.30
2023-04-27T22:24:09.227Z,15.40
2023-04-27T22:26:40.073Z,15.50
2023-04-27T22:29:10.834Z,15.50
2023-04-27T22:31:42.504Z,15.60
2023-04-27T22:34:15.181Z,15.70
2023-04-27T22:36:46.506Z,15.60
2023-04-27T22:39:17.633Z,15.60
2023-04-27T22:41:48.780Z,15.50
2023-04-27T22:44:20.018Z,15.50
2023-04-27T22:46:51.888Z,15.50
2023-04-27T22:49:23.642Z,15.40
2023-04-27T22:51:56.888Z,15.40
2023-04-27T22:54:29.630Z,15.30
2023-04-27T22:57:00.479Z,15.30
2023-04-27T22:59:31.766Z,15.30
2023-04-27T23:02:02.669Z,15.10
2023-04-27T23:04:33.896Z,15.20
2023-04-27T23:07:05.860Z,15.30
2023-04-27T23:09:36.826Z,15.10
2023-04-27T23:12:09.388Z,14.90
2023-04-27T23:14:42.485Z,14.70
2023-04-27T23:17:15.042Z,14.50
2023-04-27T23:19:47.017Z,14.70
2023-04-27T23:22:17.860Z,14.70
2023-04-27T23:24:48.479Z,14.70
2023-04-27T23:27:19.154Z,14.80
2023-04-27T23:29:49.881Z,14.90
2023-04-27T23:32:20.584Z,14.80
2023-04-27T23:34:52.703Z,14.70
2023-04-27T23:37:24.613Z,14.70
2023-04-27T23:39:55.234Z,14.60
2023-04-27T23:42:26.048Z,14.50
2023-04-27T23:44:56.908Z,14.60
2023-04-27T23:47:27.703Z,14.30
2023-04-27T23:49:59.184Z,14.40
2023-04-27T23:52:29.969Z,14.50
2023-04-27T23:55:01.125Z,14.60
2023-04-27T23:57:32.110Z,14.60
